< Typhoon 200617 2006 Season Typhoon 200619 >
Typhoon 200618 (SOULIK)
General InformationTrack Information on Google MapsDetailed Wind InformationAccess Analytics MapList of All Images || NewsDisaster Info.WeblogTrackbackTyphoon FrontResourceGoogle EarthGE AnimationAtom FeedGeoJSON
Detalied Best Track (Time Zone = UTC)
Year Month Day Hour Lat. Long. Pressure (hPa) Wind (kt) Class Image Chart
2006 10 8 12 13.3 160.0 1004 0 2 Image Chart
2006 10 8 18 14.3 158.4 1004 0 2 Image Chart
2006 10 9 00 14.9 157.5 1002 0 2 Image Chart
2006 10 9 06 15.7 156.4 1002 0 2 Image Chart
2006 10 9 12 16.1 155.3 1002 35 3 Image Chart
2006 10 9 18 16.8 154.2 1000 35 3 Image Chart
2006 10 10 00 17.6 153.2 1000 35 3 Image Chart
2006 10 10 06 18.2 152.3 996 35 3 Image Chart
2006 10 10 12 18.9 150.5 994 40 3 Image Chart
2006 10 10 18 19.2 148.8 985 50 4 Image Chart
2006 10 11 00 20.1 146.5 985 50 4 Image Chart
2006 10 11 06 20.4 145.0 980 55 4 Image Chart
2006 10 11 12 20.9 143.5 975 60 4 Image Chart
2006 10 11 18 21.3 142.6 975 60 4 Image Chart
2006 10 12 00 21.8 141.8 975 60 4 Image Chart
2006 10 12 06 22.7 141.5 975 60 4 Image Chart
2006 10 12 12 23.2 141.1 970 65 5 Image Chart
2006 10 12 18 23.5 141.0 970 65 5 Image Chart
2006 10 13 00 23.6 141.0 965 65 5 Image Chart
2006 10 13 06 23.7 141.1 960 70 5 Image Chart
2006 10 13 12 23.8 141.1 960 70 5 Image Chart
2006 10 13 18 24.0 141.1 960 70 5 Image Chart
2006 10 14 00 24.3 141.2 960 70 5 Image Chart
2006 10 14 06 24.8 140.9 955 75 5 Image Chart
2006 10 14 09 25.0 140.9 955 75 5 Image Chart
2006 10 14 12 25.4 141.1 960 75 5 Image Chart
2006 10 14 15 25.9 141.1 960 75 5 Image Chart
2006 10 14 18 26.3 141.1 960 75 5 Image Chart
2006 10 14 21 26.9 141.3 965 75 5 Image Chart
2006 10 15 00 27.3 141.6 965 70 5 Image Chart
2006 10 15 03 28.1 141.9 965 70 5 Image Chart
2006 10 15 06 29.0 142.3 965 70 5 Image Chart
2006 10 15 09 29.6 143.3 965 70 5 Image Chart
2006 10 15 12 30.5 143.9 965 70 5 Image Chart
2006 10 15 18 32.3 146.2 970 65 5 Image Chart
2006 10 16 00 33.5 149.0 975 60 4 Image Chart
2006 10 16 06 36.0 152.6 975 55 4 Image Chart
2006 10 16 12 37.6 157.0 982 0 6 Image Chart
2006 10 16 18 38.0 162.1 984 0 6 Image Chart
2006 10 17 00 38.2 166.5 992 0 6 Image Chart
2006 10 17 06 38.0 171.5 996 0 6 Image Chart
Japan Meteorological Agency Best Track Data | Correction Date : 2006-11-22
< Typhoon 200617 2006 Season Typhoon 200619 >

Help